createdAt,value
2019-06-18T00:00:14.053Z,13.09
2019-06-18T00:01:13.969Z,13.10
2019-06-18T00:02:14.045Z,13.07
2019-06-18T00:03:13.986Z,13.06
2019-06-18T00:04:14.062Z,13.06
2019-06-18T00:05:14.045Z,13.06
2019-06-18T00:06:14.046Z,13.10
2019-06-18T00:07:13.981Z,13.14
2019-06-18T00:08:14.046Z,13.13
2019-06-18T00:09:13.990Z,13.10
2019-06-18T00:10:14.052Z,13.07
2019-06-18T00:11:13.990Z,13.05
2019-06-18T00:12:14.062Z,13.05
2019-06-18T00:13:14.058Z,13.05
2019-06-18T00:14:13.996Z,13.03
2019-06-18T00:15:13.995Z,13.02
2019-06-18T00:16:14.070Z,13.00
2019-06-18T00:17:13.995Z,13.00
2019-06-18T00:18:13.990Z,13.00
2019-06-18T00:19:13.993Z,12.98
2019-06-18T00:20:14.052Z,12.96
2019-06-18T00:21:14.059Z,13.00
2019-06-18T00:22:14.013Z,13.00
2019-06-18T00:23:14.060Z,13.00
2019-06-18T00:24:14.026Z,13.00
2019-06-18T00:25:14.001Z,13.00
2019-06-18T00:26:13.987Z,13.00
2019-06-18T00:27:14.019Z,12.99
2019-06-18T00:28:13.988Z,12.98
2019-06-18T00:29:14.005Z,12.96
2019-06-18T00:30:14.081Z,12.95
2019-06-18T00:31:13.995Z,12.96
2019-06-18T00:32:14.056Z,12.95
2019-06-18T00:33:14.077Z,12.92
2019-06-18T00:34:14.064Z,12.91
2019-06-18T00:35:14.085Z,12.89
2019-06-18T00:36:13.978Z,12.86
2019-06-18T00:37:14.038Z,12.84
2019-06-18T00:38:14.059Z,12.80
2019-06-18T00:39:14.066Z,12.79
2019-06-18T00:40:22.990Z,12.77
2019-06-18T00:41:13.971Z,12.79
2019-06-18T00:42:16.748Z,12.77
2019-06-18T00:43:14.039Z,12.82
2019-06-18T00:44:14.013Z,12.83
2019-06-18T00:45:14.057Z,12.87
2019-06-18T00:46:13.992Z,12.89
2019-06-18T00:47:16.641Z,12.89
2019-06-18T00:48:13.997Z,12.86
2019-06-18T00:49:14.062Z,12.84
2019-06-18T00:50:16.522Z,12.82
2019-06-18T00:51:16.698Z,12.80
2019-06-18T00:52:14.069Z,12.80
2019-06-18T00:53:14.068Z,12.79
2019-06-18T00:54:14.005Z,12.75
2019-06-18T00:55:14.067Z,12.72
2019-06-18T00:56:14.027Z,12.73
2019-06-18T00:57:14.085Z,12.72
2019-06-18T00:58:14.061Z,12.72
2019-06-18T00:59:16.442Z,12.73
2019-06-18T01:00:14.104Z,12.73
2019-06-18T01:01:16.787Z,12.72
2019-06-18T01:02:13.985Z,12.71
2019-06-18T01:03:14.089Z,12.68
2019-06-18T01:04:14.033Z,12.65
2019-06-18T01:05:14.015Z,12.62
2019-06-18T01:06:14.098Z,12.60
2019-06-18T01:07:14.035Z,12.61
2019-06-18T01:08:13.993Z,12.64
2019-06-18T01:09:16.450Z,12.64
2019-06-18T01:10:16.711Z,12.61
2019-06-18T01:11:14.074Z,12.60
2019-06-18T01:12:14.012Z,12.58
2019-06-18T01:13:16.631Z,12.60
2019-06-18T01:14:14.006Z,12.61
2019-06-18T01:15:14.075Z,12.62
2019-06-18T01:16:21.738Z,12.66
2019-06-18T01:17:16.744Z,12.65
2019-06-18T01:18:14.045Z,12.66
2019-06-18T01:19:14.095Z,12.66
2019-06-18T01:20:14.141Z,12.65
2019-06-18T01:21:14.100Z,12.64
2019-06-18T01:22:14.118Z,12.62
2019-06-18T01:23:14.058Z,12.62
2019-06-18T01:24:14.144Z,12.65
2019-06-18T01:25:14.110Z,12.65
2019-06-18T01:26:14.289Z,12.64
2019-06-18T01:27:14.106Z,12.64
2019-06-18T01:28:14.125Z,12.65
2019-06-18T01:29:14.048Z,12.65
2019-06-18T01:30:14.039Z,12.66
2019-06-18T01:31:14.048Z,12.68
2019-06-18T01:32:14.110Z,12.69
2019-06-18T01:33:14.128Z,12.68
2019-06-18T01:34:14.040Z,12.68
2019-06-18T01:35:14.038Z,12.68
2019-06-18T01:36:14.042Z,12.68
2019-06-18T01:37:14.121Z,12.65
2019-06-18T01:38:14.105Z,12.65
2019-06-18T01:39:14.113Z,12.66
2019-06-18T01:40:14.103Z,12.65
2019-06-18T01:41:14.042Z,12.68
2019-06-18T01:42:14.122Z,12.66
2019-06-18T01:43:14.043Z,12.65
2019-06-18T01:44:14.116Z,12.64
2019-06-18T01:45:14.065Z,12.62
2019-06-18T01:46:14.097Z,12.61
2019-06-18T01:47:14.056Z,12.61
2019-06-18T01:48:14.102Z,12.58
2019-06-18T01:49:14.113Z,12.57
2019-06-18T01:50:14.114Z,12.55
2019-06-18T01:51:14.052Z,12.55
2019-06-18T01:52:14.017Z,12.57
2019-06-18T01:53:14.117Z,12.58
2019-06-18T01:54:14.010Z,12.60
2019-06-18T01:55:14.052Z,12.60
2019-06-18T01:56:14.126Z,12.58
2019-06-18T01:57:14.789Z,12.57
2019-06-18T01:58:14.133Z,12.57
2019-06-18T01:59:14.160Z,12.61
2019-06-18T02:00:14.094Z,12.61
2019-06-18T02:01:14.134Z,12.62
2019-06-18T02:02:14.129Z,12.62
2019-06-18T02:03:14.065Z,12.60
2019-06-18T02:04:14.131Z,12.58
2019-06-18T02:05:14.086Z,12.58
2019-06-18T02:06:14.199Z,12.57
2019-06-18T02:07:14.085Z,12.57
2019-06-18T02:08:14.142Z,12.55
2019-06-18T02:09:14.067Z,12.54
2019-06-18T02:10:14.097Z,12.53
2019-06-18T02:11:14.066Z,12.50
2019-06-18T02:12:14.064Z,12.53
2019-06-18T02:13:14.072Z,12.51
2019-06-18T02:14:14.145Z,12.51
2019-06-18T02:15:14.143Z,12.48
2019-06-18T02:16:13.996Z,12.47
2019-06-18T02:17:14.034Z,12.46
2019-06-18T02:18:14.082Z,12.43
2019-06-18T02:19:14.006Z,12.40
2019-06-18T02:20:14.042Z,12.39
2019-06-18T02:21:14.103Z,12.37
2019-06-18T02:22:14.091Z,12.36
2019-06-18T02:23:14.029Z,12.39
2019-06-18T02:24:13.997Z,12.42
2019-06-18T02:25:14.003Z,12.44
2019-06-18T02:26:14.212Z,12.46
2019-06-18T02:27:14.100Z,12.46
2019-06-18T02:28:14.212Z,12.42
2019-06-18T02:29:14.103Z,12.39
2019-06-18T02:30:14.118Z,12.36
2019-06-18T02:31:14.349Z,12.33
2019-06-18T02:32:14.708Z,12.32
2019-06-18T02:33:14.771Z,12.28
2019-06-18T02:34:14.070Z,12.25
2019-06-18T02:35:14.053Z,12.25
2019-06-18T02:36:14.082Z,12.28
2019-06-18T02:37:14.157Z,12.26
2019-06-18T02:38:14.089Z,12.25
2019-06-18T02:39:14.081Z,12.25
2019-06-18T02:40:14.165Z,12.24
2019-06-18T02:41:14.145Z,12.20
2019-06-18T02:42:14.081Z,12.20
2019-06-18T02:43:14.148Z,12.13
2019-06-18T02:44:14.087Z,12.10
2019-06-18T02:45:14.152Z,12.09
2019-06-18T02:46:14.163Z,12.10
2019-06-18T02:47:16.069Z,12.10
2019-06-18T02:48:14.172Z,12.09
2019-06-18T02:49:14.173Z,12.10
2019-06-18T02:50:14.174Z,12.12
2019-06-18T02:51:14.123Z,12.14
2019-06-18T02:52:14.096Z,12.18
2019-06-18T02:53:14.170Z,12.18
2019-06-18T02:54:14.174Z,12.14
2019-06-18T02:55:14.239Z,12.16
2019-06-18T02:56:14.168Z,12.14
2019-06-18T02:57:14.171Z,12.16
2019-06-18T02:58:14.164Z,12.18
2019-06-18T02:59:14.113Z,12.13
2019-06-18T03:00:14.179Z,12.13
2019-06-18T03:01:14.181Z,12.13
2019-06-18T03:02:14.177Z,12.10
2019-06-18T03:03:14.191Z,12.12
2019-06-18T03:04:14.110Z,12.12
2019-06-18T03:05:14.154Z,12.16
2019-06-18T03:06:14.102Z,12.16
2019-06-18T03:07:14.167Z,12.16
2019-06-18T03:08:14.100Z,12.13
2019-06-18T03:09:14.114Z,12.12
2019-06-18T03:10:14.195Z,12.08
2019-06-18T03:11:14.107Z,12.05
2019-06-18T03:12:14.106Z,12.02
2019-06-18T03:13:14.106Z,11.99
2019-06-18T03:14:14.170Z,11.97
2019-06-18T03:15:14.179Z,11.95
2019-06-18T03:16:14.164Z,11.95
2019-06-18T03:17:28.167Z,11.98
2019-06-18T03:18:14.086Z,12.01
2019-06-18T03:19:14.173Z,12.02
2019-06-18T03:20:14.146Z,12.02
2019-06-18T03:21:16.127Z,12.03
2019-06-18T03:22:14.165Z,11.99
2019-06-18T03:23:14.105Z,12.01
2019-06-18T03:24:14.083Z,11.99
2019-06-18T03:25:14.062Z,12.01
2019-06-18T03:26:14.191Z,11.99
2019-06-18T03:27:14.194Z,11.98
2019-06-18T03:28:14.198Z,11.97
2019-06-18T03:29:14.218Z,11.94
2019-06-18T03:30:15.248Z,11.97
2019-06-18T03:31:15.419Z,11.95
2019-06-18T03:32:14.797Z,11.95
2019-06-18T03:33:15.428Z,11.95
2019-06-18T03:34:15.456Z,11.94
2019-06-18T03:35:14.206Z,11.95
2019-06-18T03:36:14.202Z,11.97
2019-06-18T03:37:14.196Z,11.98
2019-06-18T03:38:14.165Z,11.97
2019-06-18T03:39:14.199Z,11.99
2019-06-18T03:40:14.201Z,12.02
2019-06-18T03:41:14.138Z,12.03
2019-06-18T03:42:14.134Z,12.02
2019-06-18T03:43:14.132Z,12.02
2019-06-18T03:44:14.209Z,12.03
2019-06-18T03:45:14.135Z,12.03
2019-06-18T03:46:14.094Z,12.09
2019-06-18T03:47:14.206Z,12.09
2019-06-18T03:48:14.149Z,12.08
2019-06-18T03:49:14.220Z,12.09
2019-06-18T03:50:14.157Z,12.10
2019-06-18T03:51:14.152Z,12.10
2019-06-18T03:52:14.215Z,12.12
2019-06-18T03:53:14.210Z,12.16
2019-06-18T03:54:14.141Z,12.20
2019-06-18T03:55:14.216Z,12.21
2019-06-18T03:56:14.223Z,12.24
2019-06-18T03:57:14.199Z,12.26
2019-06-18T03:58:14.139Z,12.28
2019-06-18T03:59:14.205Z,12.31
2019-06-18T04:00:14.135Z,12.33
2019-06-18T04:01:14.136Z,12.36
2019-06-18T04:02:14.128Z,12.39
2019-06-18T04:03:14.130Z,12.43
2019-06-18T04:04:14.207Z,12.46
2019-06-18T04:05:14.195Z,12.50
2019-06-18T04:06:14.217Z,12.54
2019-06-18T04:07:14.220Z,12.55
2019-06-18T04:08:14.227Z,12.57
2019-06-18T04:09:14.153Z,12.57
2019-06-18T04:10:14.225Z,12.58
2019-06-18T04:11:14.224Z,12.60
2019-06-18T04:12:14.230Z,12.62
2019-06-18T04:13:14.158Z,12.64
2019-06-18T04:14:14.226Z,12.64
2019-06-18T04:15:14.225Z,12.68
2019-06-18T04:16:14.165Z,12.71
2019-06-18T04:17:14.130Z,12.72
2019-06-18T04:18:14.217Z,12.73
2019-06-18T04:19:14.162Z,12.73
2019-06-18T04:20:14.134Z,12.76
2019-06-18T04:21:14.148Z,12.77
2019-06-18T04:22:14.230Z,12.80
2019-06-18T04:23:14.221Z,12.86
2019-06-18T04:24:14.147Z,12.89
2019-06-18T04:25:14.239Z,12.91
2019-06-18T04:26:14.226Z,12.94
2019-06-18T04:27:14.226Z,12.95
2019-06-18T04:28:14.249Z,12.98
2019-06-18T04:29:14.188Z,13.02
2019-06-18T04:30:14.318Z,13.05
2019-06-18T04:31:14.256Z,13.06
2019-06-18T04:32:14.179Z,13.09
2019-06-18T04:33:14.258Z,13.12
2019-06-18T04:34:14.206Z,13.13
2019-06-18T04:35:14.271Z,13.17
2019-06-18T04:36:14.179Z,13.20
2019-06-18T04:37:14.252Z,13.20
2019-06-18T04:38:14.251Z,13.23
2019-06-18T04:39:14.278Z,13.28
2019-06-18T04:40:14.180Z,13.31
2019-06-18T04:41:14.256Z,13.36
2019-06-18T04:42:14.248Z,13.45
2019-06-18T04:43:14.183Z,13.50
2019-06-18T04:44:14.251Z,13.59
2019-06-18T04:45:14.190Z,13.66
2019-06-18T04:46:14.250Z,13.73
2019-06-18T04:47:16.607Z,13.77
2019-06-18T04:48:23.740Z,13.83
2019-06-18T04:49:14.242Z,13.89
2019-06-18T04:50:14.241Z,13.93
2019-06-18T04:51:14.243Z,13.98
2019-06-18T04:52:14.254Z,14.03
2019-06-18T04:53:14.169Z,14.07
2019-06-18T04:54:14.168Z,14.13
2019-06-18T04:55:14.177Z,14.20
2019-06-18T04:56:14.251Z,14.27
2019-06-18T04:57:14.266Z,14.33
2019-06-18T04:58:14.267Z,14.40
2019-06-18T04:59:14.194Z,14.47
2019-06-18T05:00:14.173Z,14.54
2019-06-18T05:01:14.208Z,14.61
2019-06-18T05:02:14.193Z,14.69
2019-06-18T05:03:14.205Z,14.75
2019-06-18T05:04:14.269Z,14.80
2019-06-18T05:05:14.202Z,14.86
2019-06-18T05:06:14.212Z,14.96
2019-06-18T05:07:14.254Z,15.02
2019-06-18T05:08:14.278Z,15.10
2019-06-18T05:09:14.254Z,15.19
2019-06-18T05:10:14.192Z,15.25
2019-06-18T05:11:14.183Z,15.35
2019-06-18T05:12:14.192Z,15.42
2019-06-18T05:13:14.260Z,15.48
2019-06-18T05:14:14.263Z,15.55
2019-06-18T05:15:14.190Z,15.62
2019-06-18T05:16:14.197Z,15.70
2019-06-18T05:17:14.209Z,15.77
2019-06-18T05:18:14.283Z,15.80
2019-06-18T05:19:14.229Z,15.80
2019-06-18T05:20:14.288Z,15.86
2019-06-18T05:21:14.206Z,15.87
2019-06-18T05:22:14.193Z,15.90
2019-06-18T05:23:14.284Z,15.99
2019-06-18T05:24:14.289Z,16.06
2019-06-18T05:25:14.219Z,16.09
2019-06-18T05:26:14.286Z,16.16
2019-06-18T05:27:14.174Z,16.13
2019-06-18T05:28:14.172Z,16.16
2019-06-18T05:29:14.617Z,16.18
2019-06-18T05:30:14.238Z,16.25
2019-06-18T05:31:14.268Z,16.29
2019-06-18T05:32:14.158Z,16.38
2019-06-18T05:33:14.277Z,16.46
2019-06-18T05:34:14.183Z,16.55
2019-06-18T05:35:14.218Z,16.66
2019-06-18T05:36:14.175Z,16.76
2019-06-18T05:37:14.218Z,16.83
2019-06-18T05:38:14.133Z,16.90
2019-06-18T05:39:14.221Z,16.95
2019-06-18T05:40:14.206Z,17.03
2019-06-18T05:41:14.219Z,17.10
2019-06-18T05:42:14.211Z,17.16
2019-06-18T05:43:14.160Z,17.18
2019-06-18T05:44:14.145Z,17.25
2019-06-18T05:45:14.137Z,17.35
2019-06-18T05:46:14.176Z,17.43
2019-06-18T05:47:14.216Z,17.54
2019-06-18T05:48:14.198Z,17.65
2019-06-18T05:49:14.220Z,17.77
2019-06-18T05:50:14.231Z,17.96
2019-06-18T05:51:14.232Z,18.07
2019-06-18T05:52:14.292Z,18.17
2019-06-18T05:53:14.225Z,18.32
2019-06-18T05:54:14.294Z,18.51
2019-06-18T05:55:14.296Z,18.66
2019-06-18T05:56:14.221Z,18.80
2019-06-18T05:57:14.271Z,18.92
2019-06-18T05:58:14.220Z,19.02
2019-06-18T05:59:14.297Z,19.12
2019-06-18T06:00:14.221Z,19.09
2019-06-18T06:01:14.299Z,19.10
2019-06-18T06:02:14.221Z,19.08
2019-06-18T06:03:14.189Z,19.15
2019-06-18T06:04:14.209Z,19.13
2019-06-18T06:05:14.225Z,19.25
2019-06-18T06:06:14.301Z,19.40
2019-06-18T06:07:16.085Z,19.53
2019-06-18T06:08:14.314Z,19.44
2019-06-18T06:09:14.250Z,19.38
2019-06-18T06:10:14.313Z,19.33
2019-06-18T06:11:14.322Z,19.39
2019-06-18T06:12:14.278Z,19.47
2019-06-18T06:13:14.318Z,19.49
2019-06-18T06:14:14.251Z,19.58
2019-06-18T06:15:14.320Z,19.68
2019-06-18T06:16:14.255Z,19.66
2019-06-18T06:17:14.325Z,19.68
2019-06-18T06:18:14.258Z,19.80
2019-06-18T06:19:17.821Z,19.91
2019-06-18T06:20:14.257Z,19.95
2019-06-18T06:21:14.322Z,20.05
2019-06-18T06:22:14.344Z,20.20
2019-06-18T06:23:14.331Z,20.32
2019-06-18T06:24:14.333Z,20.41
2019-06-18T06:25:14.387Z,20.49
2019-06-18T06:26:15.374Z,20.60
2019-06-18T06:27:14.261Z,20.70
2019-06-18T06:28:14.276Z,20.68
2019-06-18T06:29:14.914Z,20.70
2019-06-18T06:30:14.259Z,20.75
2019-06-18T06:31:14.263Z,20.79
2019-06-18T06:32:14.274Z,20.82
2019-06-18T06:33:14.266Z,20.94
2019-06-18T06:34:14.263Z,21.01
2019-06-18T06:35:14.426Z,21.08
2019-06-18T06:36:14.348Z,21.21
2019-06-18T06:37:14.384Z,21.28
2019-06-18T06:38:14.355Z,21.47
2019-06-18T06:39:14.336Z,21.62
2019-06-18T06:40:14.352Z,21.73
2019-06-18T06:41:14.276Z,21.89
2019-06-18T06:42:14.350Z,22.08
2019-06-18T06:43:14.273Z,22.14
2019-06-18T06:44:14.300Z,22.16
2019-06-18T06:45:14.342Z,22.23
2019-06-18T06:46:14.277Z,22.13
2019-06-18T06:47:15.066Z,22.14
2019-06-18T06:48:14.367Z,22.28
2019-06-18T06:49:29.637Z,22.53
2019-06-18T06:50:14.335Z,22.70
2019-06-18T06:51:14.351Z,22.91
2019-06-18T06:52:14.256Z,23.13
2019-06-18T06:53:14.254Z,23.33
2019-06-18T06:54:15.433Z,23.28
2019-06-18T06:55:14.264Z,23.42
2019-06-18T06:56:14.251Z,23.56
2019-06-18T06:57:14.338Z,23.67
2019-06-18T06:58:23.067Z,23.71
2019-06-18T06:59:14.347Z,23.57
2019-06-18T07:00:14.285Z,23.31
2019-06-18T07:01:14.285Z,23.08
2019-06-18T07:02:14.343Z,22.90
2019-06-18T07:03:14.296Z,22.76
2019-06-18T07:04:14.283Z,22.57
2019-06-18T07:05:14.311Z,22.52
2019-06-18T07:06:14.214Z,22.52
2019-06-18T07:07:14.347Z,22.48
2019-06-18T07:08:14.313Z,22.42
2019-06-18T07:09:14.233Z,22.36
2019-06-18T07:10:14.252Z,22.43
2019-06-18T07:11:14.271Z,22.45
2019-06-18T07:12:14.342Z,22.50
2019-06-18T07:13:14.350Z,22.48
2019-06-18T07:14:14.266Z,22.39
2019-06-18T07:15:14.336Z,22.35
2019-06-18T07:16:14.319Z,22.25
2019-06-18T07:17:14.284Z,22.28
2019-06-18T07:18:14.270Z,22.31
2019-06-18T07:19:14.294Z,22.34
2019-06-18T07:20:14.282Z,22.39
2019-06-18T07:21:14.368Z,22.49
2019-06-18T07:22:14.287Z,22.48
2019-06-18T07:23:14.366Z,22.52
2019-06-18T07:24:14.362Z,22.49
2019-06-18T07:25:14.364Z,22.45
2019-06-18T07:26:14.286Z,22.36
2019-06-18T07:27:14.305Z,22.38
2019-06-18T07:28:16.955Z,22.45
2019-06-18T07:29:14.626Z,22.48
2019-06-18T07:30:14.301Z,22.56
2019-06-18T07:31:14.251Z,22.68
2019-06-18T07:32:14.288Z,22.75
2019-06-18T07:33:14.244Z,22.80
2019-06-18T07:34:14.343Z,22.84
2019-06-18T07:35:14.364Z,22.90
2019-06-18T07:36:14.279Z,22.97
2019-06-18T07:37:14.378Z,23.01
2019-06-18T07:38:14.314Z,23.06
2019-06-18T07:39:14.381Z,23.04
2019-06-18T07:40:14.320Z,23.06
2019-06-18T07:41:14.315Z,23.01
2019-06-18T07:42:14.386Z,22.94
2019-06-18T07:43:14.346Z,22.88
2019-06-18T07:44:14.320Z,22.79
2019-06-18T07:45:14.322Z,22.77
2019-06-18T07:46:14.324Z,22.83
2019-06-18T07:47:14.273Z,22.82
2019-06-18T07:48:14.306Z,22.72
2019-06-18T07:49:14.381Z,22.71
2019-06-18T07:50:18.145Z,22.71
2019-06-18T07:51:14.275Z,22.75
2019-06-18T07:52:14.383Z,22.72
2019-06-18T07:53:14.379Z,22.70
2019-06-18T07:54:14.401Z,22.68
2019-06-18T07:55:14.391Z,22.63
2019-06-18T07:56:14.385Z,22.59
2019-06-18T07:57:14.387Z,22.57
2019-06-18T07:58:14.405Z,22.61
2019-06-18T07:59:14.386Z,22.68
2019-06-18T08:00:14.387Z,22.71
2019-06-18T08:01:14.390Z,22.76
2019-06-18T08:02:14.320Z,22.70
2019-06-18T08:03:14.301Z,22.68
2019-06-18T08:04:14.316Z,22.67
2019-06-18T08:05:14.319Z,22.65
2019-06-18T08:06:14.317Z,22.67
2019-06-18T08:07:14.969Z,22.71
2019-06-18T08:08:14.247Z,22.72
2019-06-18T08:09:14.423Z,22.82
2019-06-18T08:10:14.265Z,22.93
2019-06-18T08:11:14.347Z,22.98
2019-06-18T08:12:14.290Z,22.98
2019-06-18T08:13:14.345Z,22.95
2019-06-18T08:14:14.320Z,23.01
2019-06-18T08:15:14.246Z,23.01
2019-06-18T08:16:14.311Z,23.06
2019-06-18T08:17:14.237Z,23.08
2019-06-18T08:18:14.390Z,23.16
2019-06-18T08:19:14.361Z,23.19
2019-06-18T08:20:30.698Z,23.24
2019-06-18T08:21:14.311Z,23.31
2019-06-18T08:22:17.841Z,23.41
2019-06-18T08:23:14.343Z,23.47
2019-06-18T08:24:14.428Z,23.56
2019-06-18T08:25:14.299Z,23.64
2019-06-18T08:26:14.331Z,23.74
2019-06-18T08:27:14.353Z,23.82
2019-06-18T08:28:14.445Z,23.75
2019-06-18T08:29:14.412Z,23.91
2019-06-18T08:30:25.948Z,24.11
2019-06-18T08:31:14.338Z,24.29
2019-06-18T08:32:14.356Z,24.48
2019-06-18T08:33:14.386Z,24.57
2019-06-18T08:34:14.314Z,24.66
2019-06-18T08:35:14.417Z,24.93
2019-06-18T08:36:14.421Z,25.23
2019-06-18T08:37:14.302Z,25.31
2019-06-18T08:38:14.421Z,25.16
2019-06-18T08:39:14.419Z,25.41
2019-06-18T08:40:14.381Z,25.67
2019-06-18T08:41:14.421Z,25.88
2019-06-18T08:42:14.327Z,26.21
2019-06-18T08:43:14.394Z,26.54
2019-06-18T08:44:14.361Z,26.84
2019-06-18T08:45:14.364Z,27.07
2019-06-18T08:46:14.355Z,27.26
2019-06-18T08:47:14.423Z,27.34
2019-06-18T08:48:14.309Z,27.51
2019-06-18T08:49:14.299Z,27.74
2019-06-18T08:50:14.392Z,27.74
2019-06-18T08:51:14.357Z,27.91
2019-06-18T08:52:14.357Z,28.11
2019-06-18T08:53:14.331Z,28.29
2019-06-18T08:54:14.425Z,28.36
2019-06-18T08:55:14.336Z,28.33
2019-06-18T08:56:14.856Z,28.46
2019-06-18T08:57:14.331Z,28.32
2019-06-18T08:58:14.371Z,28.24
2019-06-18T08:59:14.396Z,28.02
2019-06-18T09:00:14.306Z,27.91
2019-06-18T09:01:14.312Z,28.15
2019-06-18T09:02:14.374Z,28.20
2019-06-18T09:03:25.721Z,28.54
2019-06-18T09:04:14.398Z,28.80
2019-06-18T09:05:14.361Z,29.09
2019-06-18T09:06:14.349Z,29.24
2019-06-18T09:07:14.447Z,29.31
2019-06-18T09:08:14.455Z,29.46
2019-06-18T09:09:14.477Z,29.57
2019-06-18T09:10:14.400Z,29.55
2019-06-18T09:11:14.453Z,29.31
2019-06-18T09:12:14.455Z,29.24
2019-06-18T09:13:14.383Z,29.14
2019-06-18T09:14:14.394Z,28.73
2019-06-18T09:15:14.400Z,28.75
2019-06-18T09:16:14.400Z,28.43
2019-06-18T09:17:14.458Z,28.29
2019-06-18T09:18:17.251Z,28.35
2019-06-18T09:19:14.458Z,28.43
2019-06-18T09:20:14.413Z,28.62
2019-06-18T09:21:14.461Z,28.73
2019-06-18T09:22:14.404Z,28.47
2019-06-18T09:23:14.462Z,28.36
2019-06-18T09:24:14.476Z,28.54
2019-06-18T09:25:14.480Z,28.82
2019-06-18T09:26:14.397Z,29.17
2019-06-18T09:27:14.462Z,29.44
2019-06-18T09:28:14.397Z,29.51
2019-06-18T09:29:14.419Z,29.66
2019-06-18T09:30:14.480Z,29.57
2019-06-18T09:31:14.402Z,29.54
2019-06-18T09:32:14.479Z,29.58
2019-06-18T09:33:14.471Z,29.68
2019-06-18T09:34:14.470Z,29.84
2019-06-18T09:35:14.479Z,29.98
2019-06-18T09:36:14.399Z,30.06
2019-06-18T09:37:14.471Z,30.17
2019-06-18T09:38:14.469Z,30.28
2019-06-18T09:39:14.423Z,30.43
2019-06-18T09:40:14.406Z,30.68
2019-06-18T09:41:14.401Z,30.84
2019-06-18T09:42:14.478Z,31.05
2019-06-18T09:43:14.406Z,31.27
2019-06-18T09:44:14.808Z,31.55
2019-06-18T09:45:14.569Z,31.40
2019-06-18T09:46:14.413Z,30.93
2019-06-18T09:47:14.358Z,30.60
2019-06-18T09:48:14.358Z,30.17
2019-06-18T09:49:14.430Z,29.70
2019-06-18T09:50:14.422Z,29.21
2019-06-18T09:51:22.954Z,29.09
2019-06-18T09:52:14.382Z,29.02
2019-06-18T09:53:17.311Z,29.04
2019-06-18T09:54:14.341Z,29.17
2019-06-18T09:55:14.403Z,29.23
2019-06-18T09:56:14.401Z,29.52
2019-06-18T09:57:14.472Z,29.91
2019-06-18T09:58:14.404Z,30.19
2019-06-18T09:59:14.434Z,30.38
2019-06-18T10:00:14.433Z,30.32
2019-06-18T10:01:14.437Z,30.20
2019-06-18T10:02:14.388Z,30.32
2019-06-18T10:03:14.405Z,30.43
2019-06-18T10:04:14.377Z,30.68
2019-06-18T10:05:14.410Z,30.45
2019-06-18T10:06:14.318Z,30.31
2019-06-18T10:07:14.439Z,29.98
2019-06-18T10:08:14.486Z,30.01
2019-06-18T10:10:14.431Z,29.81
2019-06-18T10:11:14.428Z,29.84
2019-06-18T10:12:14.430Z,29.58
2019-06-18T10:13:14.417Z,29.46
2019-06-18T10:14:14.487Z,29.31
2019-06-18T10:15:14.424Z,29.55
2019-06-18T10:16:14.492Z,29.86
2019-06-18T10:17:14.489Z,29.84
2019-06-18T10:18:14.437Z,30.10
2019-06-18T10:19:14.692Z,30.17
2019-06-18T10:20:14.434Z,30.09
2019-06-18T10:21:14.530Z,30.19
2019-06-18T10:22:14.438Z,30.21
2019-06-18T10:23:14.510Z,30.28
2019-06-18T10:24:14.509Z,30.12
2019-06-18T10:25:14.530Z,30.16
2019-06-18T10:26:14.507Z,30.19
2019-06-18T10:27:14.439Z,30.21
2019-06-18T10:28:14.381Z,30.35
2019-06-18T10:29:28.961Z,30.26
2019-06-18T10:30:14.398Z,30.15
2019-06-18T10:31:14.486Z,30.31
2019-06-18T10:32:14.385Z,30.48
2019-06-18T10:33:14.428Z,30.61
2019-06-18T10:34:14.500Z,30.79
2019-06-18T10:35:14.493Z,30.89
2019-06-18T10:36:14.505Z,30.66
2019-06-18T10:37:14.501Z,30.32
2019-06-18T10:38:14.395Z,30.28
2019-06-18T10:39:14.471Z,30.10
2019-06-18T10:40:14.407Z,30.12
2019-06-18T10:41:18.330Z,30.16
2019-06-18T10:42:14.341Z,30.27
2019-06-18T10:43:14.435Z,30.23
2019-06-18T10:44:14.384Z,30.26
2019-06-18T10:45:14.468Z,30.50
2019-06-18T10:46:14.465Z,30.84
2019-06-18T10:47:14.470Z,30.97
2019-06-18T10:48:14.533Z,31.17
2019-06-18T10:49:18.405Z,31.38
2019-06-18T10:50:14.524Z,31.62
2019-06-18T10:51:14.468Z,31.81
2019-06-18T10:52:14.459Z,31.75
2019-06-18T10:53:14.464Z,31.81
2019-06-18T10:54:14.535Z,31.85
2019-06-18T10:55:14.463Z,31.74
2019-06-18T10:56:14.466Z,31.51
2019-06-18T10:57:14.530Z,31.12
2019-06-18T10:58:14.483Z,31.04
2019-06-18T10:59:14.482Z,31.08
2019-06-18T11:00:14.461Z,30.97
2019-06-18T11:01:14.485Z,31.00
2019-06-18T11:02:14.454Z,30.84
2019-06-18T11:03:14.482Z,30.84
2019-06-18T11:04:14.517Z,31.09
2019-06-18T11:05:14.438Z,31.24
2019-06-18T11:06:14.401Z,31.42
2019-06-18T11:07:14.485Z,31.55
2019-06-18T11:08:14.549Z,31.53
2019-06-18T11:09:14.542Z,31.63
2019-06-18T11:10:14.550Z,31.42
2019-06-18T11:11:14.545Z,31.37
2019-06-18T11:12:14.495Z,31.41
2019-06-18T11:13:14.474Z,31.46
2019-06-18T11:14:15.961Z,31.20
2019-06-18T11:15:14.570Z,31.00
2019-06-18T11:16:14.545Z,31.02
2019-06-18T11:17:14.545Z,31.33
2019-06-18T11:18:14.481Z,31.49
2019-06-18T11:19:14.545Z,31.67
2019-06-18T11:20:14.481Z,31.70
2019-06-18T11:21:14.546Z,31.40
2019-06-18T11:22:14.847Z,30.82
2019-06-18T11:23:30.220Z,30.64
2019-06-18T11:24:14.593Z,30.84
2019-06-18T11:25:17.269Z,31.02
2019-06-18T11:26:14.561Z,31.17
2019-06-18T11:27:14.555Z,31.29
2019-06-18T11:28:14.488Z,31.60
2019-06-18T11:29:14.555Z,31.93
2019-06-18T11:30:14.555Z,32.07
2019-06-18T11:31:14.559Z,32.19
2019-06-18T11:32:14.500Z,32.37
2019-06-18T11:33:14.578Z,32.63
2019-06-18T11:34:14.498Z,32.73
2019-06-18T11:35:14.562Z,32.66
2019-06-18T11:36:14.563Z,32.32
2019-06-18T11:37:14.566Z,31.74
2019-06-18T11:38:14.501Z,31.45
2019-06-18T11:39:14.508Z,31.29
2019-06-18T11:40:14.514Z,31.02
2019-06-18T11:41:14.568Z,30.84
2019-06-18T11:42:14.496Z,31.04
2019-06-18T11:43:14.578Z,30.90
2019-06-18T11:44:14.566Z,30.98
2019-06-18T11:45:14.578Z,31.06
2019-06-18T11:46:14.567Z,31.24
2019-06-18T11:47:14.503Z,31.34
2019-06-18T11:48:14.560Z,31.01
2019-06-18T11:49:14.493Z,30.84
2019-06-18T11:50:14.563Z,30.80
2019-06-18T11:51:14.495Z,30.87
2019-06-18T11:52:28.932Z,30.98
2019-06-18T11:53:14.565Z,31.12
2019-06-18T11:54:14.560Z,31.29
2019-06-18T11:55:14.574Z,31.38
2019-06-18T11:56:14.592Z,31.48
2019-06-18T11:57:14.568Z,31.45
2019-06-18T11:58:14.492Z,31.64
2019-06-18T11:59:14.437Z,31.97
2019-06-18T12:00:14.465Z,32.27
2019-06-18T12:01:14.537Z,32.38
2019-06-18T12:02:14.448Z,32.49
2019-06-18T12:03:14.579Z,32.16
2019-06-18T12:04:14.467Z,31.88
2019-06-18T12:05:14.440Z,32.14
2019-06-18T12:06:14.525Z,31.98
2019-06-18T12:07:14.498Z,31.77
2019-06-18T12:08:14.582Z,31.70
2019-06-18T12:09:14.589Z,31.70
2019-06-18T12:10:14.584Z,32.05
2019-06-18T12:11:14.586Z,32.18
2019-06-18T12:12:14.519Z,32.11
2019-06-18T12:13:14.520Z,32.12
2019-06-18T12:14:14.589Z,32.25
2019-06-18T12:15:14.591Z,32.40
2019-06-18T12:16:14.523Z,32.29
2019-06-18T12:17:14.591Z,32.14
2019-06-18T12:18:14.465Z,32.22
2019-06-18T12:19:14.572Z,32.34
2019-06-18T12:20:14.582Z,32.26
2019-06-18T12:21:14.582Z,31.94
2019-06-18T12:22:14.574Z,32.01
2019-06-18T12:23:16.691Z,32.12
2019-06-18T12:24:14.497Z,32.26
2019-06-18T12:25:14.456Z,32.15
2019-06-18T12:26:14.787Z,32.36
2019-06-18T12:27:14.551Z,32.32
2019-06-18T12:28:14.516Z,31.82
2019-06-18T12:29:14.586Z,31.94
2019-06-18T12:30:14.595Z,31.86
2019-06-18T12:31:14.470Z,32.04
2019-06-18T12:32:14.564Z,32.07
2019-06-18T12:33:14.508Z,31.75
2019-06-18T12:34:14.565Z,31.68
2019-06-18T12:35:14.541Z,31.70
2019-06-18T12:36:14.507Z,31.67
2019-06-18T12:37:14.554Z,31.68
2019-06-18T12:39:14.543Z,31.38
2019-06-18T12:40:14.569Z,31.16
2019-06-18T12:41:14.616Z,30.97
2019-06-18T12:42:14.614Z,30.98
2019-06-18T12:43:14.555Z,31.09
2019-06-18T12:44:14.556Z,31.01
2019-06-18T12:45:14.649Z,31.08
2019-06-18T12:46:14.619Z,31.27
2019-06-18T12:47:14.561Z,31.41
2019-06-18T12:48:14.619Z,31.45
2019-06-18T12:49:14.622Z,31.49
2019-06-18T12:50:14.548Z,31.62
2019-06-18T12:51:14.617Z,31.66
2019-06-18T12:52:14.552Z,31.62
2019-06-18T12:53:14.619Z,31.80
2019-06-18T12:54:14.618Z,31.77